sensor_id;sensor_type;location;lat;lon;timestamp;temperature;humidity
50586;DHT22;36542;51.700;8.846;2023-03-24T00:01:41;10.70;99.90
50586;DHT22;36542;51.700;8.846;2023-03-24T00:04:07;10.90;99.90
50586;DHT22;36542;51.700;8.846;2023-03-24T00:06:33;11.10;99.90
50586;DHT22;36542;51.700;8.846;2023-03-24T00:08:59;11.10;99.90
50586;DHT22;36542;51.700;8.846;2023-03-24T00:11:25;11.00;99.90
50586;DHT22;36542;51.700;8.846;2023-03-24T00:13:51;11.00;99.90
50586;DHT22;36542;51.700;8.846;2023-03-24T00:16:17;11.20;99.90
50586;DHT22;36542;51.700;8.846;2023-03-24T00:18:44;11.30;99.90
50586;DHT22;36542;51.700;8.846;2023-03-24T00:21:14;11.30;99.90
50586;DHT22;36542;51.700;8.846;2023-03-24T00:23:40;11.30;99.90
50586;DHT22;36542;51.700;8.846;2023-03-24T00:26:12;11.30;99.90
50586;DHT22;36542;51.700;8.846;2023-03-24T00:28:40;11.20;99.90
50586;DHT22;36542;51.700;8.846;2023-03-24T00:31:07;11.20;99.90
50586;DHT22;36542;51.700;8.846;2023-03-24T00:33:33;11.20;99.90
50586;DHT22;36542;51.700;8.846;2023-03-24T00:36:05;11.10;99.90
50586;DHT22;36542;51.700;8.846;2023-03-24T00:38:32;11.20;99.90
50586;DHT22;36542;51.700;8.846;2023-03-24T00:40:59;11.20;99.90
50586;DHT22;36542;51.700;8.846;2023-03-24T00:43:25;11.20;99.90
50586;DHT22;36542;51.700;8.846;2023-03-24T00:45:57;11.30;99.90
50586;DHT22;36542;51.700;8.846;2023-03-24T00:48:22;11.20;99.90
50586;DHT22;36542;51.700;8.846;2023-03-24T00:50:50;11.20;99.90
50586;DHT22;36542;51.700;8.846;2023-03-24T00:53:17;11.30;99.90
50586;DHT22;36542;51.700;8.846;2023-03-24T00:55:43;11.20;99.90
50586;DHT22;36542;51.700;8.846;2023-03-24T00:58:16;11.20;99.90
50586;DHT22;36542;51.700;8.846;2023-03-24T01:00:45;11.30;99.90
50586;DHT22;36542;51.700;8.846;2023-03-24T01:03:10;11.30;99.90
50586;DHT22;36542;51.700;8.846;2023-03-24T01:05:36;11.40;99.90
50586;DHT22;36542;51.700;8.846;2023-03-24T01:08:03;11.40;99.90
50586;DHT22;36542;51.700;8.846;2023-03-24T01:10:37;11.40;99.90
50586;DHT22;36542;51.700;8.846;2023-03-24T01:13:15;11.40;99.90
50586;DHT22;36542;51.700;8.846;2023-03-24T01:15:41;11.30;99.90
50586;DHT22;36542;51.700;8.846;2023-03-24T01:18:08;11.30;99.90
50586;DHT22;36542;51.700;8.846;2023-03-24T01:20:34;11.30;99.90
50586;DHT22;36542;51.700;8.846;2023-03-24T01:23:02;11.30;99.90
50586;DHT22;36542;51.700;8.846;2023-03-24T01:25:29;11.30;99.90
50586;DHT22;36542;51.700;8.846;2023-03-24T01:27:55;11.30;99.90
50586;DHT22;36542;51.700;8.846;2023-03-24T01:30:24;11.40;99.90
50586;DHT22;36542;51.700;8.846;2023-03-24T01:32:50;11.40;99.90
50586;DHT22;36542;51.700;8.846;2023-03-24T01:35:16;11.40;99.90
50586;DHT22;36542;51.700;8.846;2023-03-24T01:37:42;11.50;99.90
50586;DHT22;36542;51.700;8.846;2023-03-24T01:40:10;11.50;99.90
50586;DHT22;36542;51.700;8.846;2023-03-24T01:42:37;11.50;99.90
50586;DHT22;36542;51.700;8.846;2023-03-24T01:45:40;11.40;99.90
50586;DHT22;36542;51.700;8.846;2023-03-24T01:51:44;11.50;99.90
50586;DHT22;36542;51.700;8.846;2023-03-24T01:54:15;11.60;99.90
50586;DHT22;36542;51.700;8.846;2023-03-24T01:56:49;11.60;99.90
50586;DHT22;36542;51.700;8.846;2023-03-24T01:59:19;11.70;99.90
50586;DHT22;36542;51.700;8.846;2023-03-24T02:01:47;11.70;99.90
50586;DHT22;36542;51.700;8.846;2023-03-24T02:04:14;11.70;99.90
50586;DHT22;36542;51.700;8.846;2023-03-24T02:06:42;11.80;99.90
50586;DHT22;36542;51.700;8.846;2023-03-24T02:09:10;11.80;99.90
50586;DHT22;36542;51.700;8.846;2023-03-24T02:11:37;11.80;99.90
50586;DHT22;36542;51.700;8.846;2023-03-24T02:14:04;11.70;99.90
50586;DHT22;36542;51.700;8.846;2023-03-24T02:16:55;11.80;99.90
50586;DHT22;36542;51.700;8.846;2023-03-24T02:28:23;11.80;99.90
50586;DHT22;36542;51.700;8.846;2023-03-24T02:36:56;11.80;99.90
50586;DHT22;36542;51.700;8.846;2023-03-24T02:39:50;11.90;99.90
50586;DHT22;36542;51.700;8.846;2023-03-24T02:46:03;11.80;99.90
50586;DHT22;36542;51.700;8.846;2023-03-24T02:51:39;11.70;99.90
50586;DHT22;36542;51.700;8.846;2023-03-24T02:54:17;11.70;99.90
50586;DHT22;36542;51.700;8.846;2023-03-24T02:57:09;11.70;99.90
50586;DHT22;36542;51.700;8.846;2023-03-24T02:59:56;11.80;99.90
50586;DHT22;36542;51.700;8.846;2023-03-24T03:02:27;11.80;99.90
50586;DHT22;36542;51.700;8.846;2023-03-24T03:05:04;11.80;99.90
50586;DHT22;36542;51.700;8.846;2023-03-24T03:07:33;11.90;99.90
50586;DHT22;36542;51.700;8.846;2023-03-24T03:10:07;12.00;99.90
50586;DHT22;36542;51.700;8.846;2023-03-24T03:12:36;12.10;99.90
50586;DHT22;36542;51.700;8.846;2023-03-24T03:15:13;12.10;99.90
50586;DHT22;36542;51.700;8.846;2023-03-24T03:17:43;12.20;99.90
50586;DHT22;36542;51.700;8.846;2023-03-24T03:20:15;12.10;99.90
50586;DHT22;36542;51.700;8.846;2023-03-24T03:22:48;12.10;99.90
50586;DHT22;36542;51.700;8.846;2023-03-24T03:25:17;12.10;99.90
50586;DHT22;36542;51.700;8.846;2023-03-24T03:27:44;12.00;99.90
50586;DHT22;36542;51.700;8.846;2023-03-24T03:30:12;11.90;99.90
50586;DHT22;36542;51.700;8.846;2023-03-24T03:32:44;11.90;99.90
50586;DHT22;36542;51.700;8.846;2023-03-24T03:35:18;11.80;99.90
50586;DHT22;36542;51.700;8.846;2023-03-24T03:38:21;11.70;99.90
50586;DHT22;36542;51.700;8.846;2023-03-24T03:40:53;11.60;99.90
50586;DHT22;36542;51.700;8.846;2023-03-24T03:43:20;11.60;99.90
50586;DHT22;36542;51.700;8.846;2023-03-24T03:45:46;11.50;99.90
50586;DHT22;36542;51.700;8.846;2023-03-24T03:48:12;11.40;99.90
50586;DHT22;36542;51.700;8.846;2023-03-24T03:50:38;11.50;99.90
50586;DHT22;36542;51.700;8.846;2023-03-24T03:53:05;11.60;99.90
50586;DHT22;36542;51.700;8.846;2023-03-24T03:55:31;11.80;99.90
50586;DHT22;36542;51.700;8.846;2023-03-24T03:57:58;11.90;99.90
50586;DHT22;36542;51.700;8.846;2023-03-24T04:00:24;11.80;99.90
50586;DHT22;36542;51.700;8.846;2023-03-24T04:05:34;11.80;99.90
50586;DHT22;36542;51.700;8.846;2023-03-24T04:13:55;11.70;99.90
50586;DHT22;36542;51.700;8.846;2023-03-24T04:22:37;11.90;99.90
50586;DHT22;36542;51.700;8.846;2023-03-24T04:27:59;11.80;99.90
50586;DHT22;36542;51.700;8.846;2023-03-24T04:30:39;11.80;99.90
50586;DHT22;36542;51.700;8.846;2023-03-24T04:33:18;11.80;99.90
50586;DHT22;36542;51.700;8.846;2023-03-24T04:35:55;11.90;99.90
50586;DHT22;36542;51.700;8.846;2023-03-24T04:38:25;11.90;99.90
50586;DHT22;36542;51.700;8.846;2023-03-24T04:40:53;11.90;99.90
50586;DHT22;36542;51.700;8.846;2023-03-24T04:43:22;12.00;99.90
50586;DHT22;36542;51.700;8.846;2023-03-24T04:45:50;12.00;99.90
50586;DHT22;36542;51.700;8.846;2023-03-24T04:48:18;12.10;99.90
50586;DHT22;36542;51.700;8.846;2023-03-24T04:50:52;12.10;99.90
50586;DHT22;36542;51.700;8.846;2023-03-24T04:53:18;12.20;99.90
50586;DHT22;36542;51.700;8.846;2023-03-24T04:56:25;12.10;99.90
50586;DHT22;36542;51.700;8.846;2023-03-24T04:58:52;12.20;99.90
50586;DHT22;36542;51.700;8.846;2023-03-24T05:01:18;12.40;99.90
50586;DHT22;36542;51.700;8.846;2023-03-24T05:03:47;12.40;99.90
50586;DHT22;36542;51.700;8.846;2023-03-24T05:06:13;12.30;99.90
50586;DHT22;36542;51.700;8.846;2023-03-24T05:08:38;12.30;99.90
50586;DHT22;36542;51.700;8.846;2023-03-24T05:11:04;12.40;99.90
50586;DHT22;36542;51.700;8.846;2023-03-24T05:13:30;12.40;99.90
50586;DHT22;36542;51.700;8.846;2023-03-24T05:15:56;12.50;99.90
50586;DHT22;36542;51.700;8.846;2023-03-24T05:18:22;12.50;99.90
50586;DHT22;36542;51.700;8.846;2023-03-24T05:20:48;12.60;99.90
50586;DHT22;36542;51.700;8.846;2023-03-24T05:23:13;12.50;99.90
50586;DHT22;36542;51.700;8.846;2023-03-24T05:25:39;12.50;99.90
50586;DHT22;36542;51.700;8.846;2023-03-24T05:28:05;12.50;99.90
50586;DHT22;36542;51.700;8.846;2023-03-24T05:30:30;12.50;99.90
50586;DHT22;36542;51.700;8.846;2023-03-24T05:32:56;12.50;99.90
50586;DHT22;36542;51.700;8.846;2023-03-24T05:35:22;12.50;99.90
50586;DHT22;36542;51.700;8.846;2023-03-24T05:37:49;12.60;99.90
50586;DHT22;36542;51.700;8.846;2023-03-24T05:40:15;12.50;99.90
50586;DHT22;36542;51.700;8.846;2023-03-24T05:42:41;12.50;99.90
50586;DHT22;36542;51.700;8.846;2023-03-24T05:45:07;12.50;99.90
50586;DHT22;36542;51.700;8.846;2023-03-24T05:47:33;12.50;99.90
50586;DHT22;36542;51.700;8.846;2023-03-24T05:49:59;12.50;99.90
50586;DHT22;36542;51.700;8.846;2023-03-24T05:52:24;12.40;99.90
50586;DHT22;36542;51.700;8.846;2023-03-24T05:54:50;12.40;99.90
50586;DHT22;36542;51.700;8.846;2023-03-24T05:57:17;12.30;99.90
50586;DHT22;36542;51.700;8.846;2023-03-24T05:59:43;12.20;99.90
50586;DHT22;36542;51.700;8.846;2023-03-24T06:02:09;12.20;99.90
50586;DHT22;36542;51.700;8.846;2023-03-24T06:04:35;12.10;99.90
50586;DHT22;36542;51.700;8.846;2023-03-24T06:07:00;12.10;99.90
50586;DHT22;36542;51.700;8.846;2023-03-24T06:09:28;12.00;99.90
50586;DHT22;36542;51.700;8.846;2023-03-24T06:11:58;11.90;99.90
50586;DHT22;36542;51.700;8.846;2023-03-24T06:14:23;11.90;99.90
50586;DHT22;36542;51.700;8.846;2023-03-24T06:16:50;11.60;99.90
50586;DHT22;36542;51.700;8.846;2023-03-24T06:19:16;11.00;99.90
50586;DHT22;36542;51.700;8.846;2023-03-24T06:21:42;10.80;99.90
50586;DHT22;36542;51.700;8.846;2023-03-24T06:24:09;10.70;99.90
50586;DHT22;36542;51.700;8.846;2023-03-24T06:26:39;10.60;99.90
50586;DHT22;36542;51.700;8.846;2023-03-24T06:29:06;10.80;99.90
50586;DHT22;36542;51.700;8.846;2023-03-24T06:31:32;10.90;99.90
50586;DHT22;36542;51.700;8.846;2023-03-24T06:33:58;11.00;99.90
50586;DHT22;36542;51.700;8.846;2023-03-24T06:36:24;11.20;99.90
50586;DHT22;36542;51.700;8.846;2023-03-24T06:38:50;11.30;99.90
50586;DHT22;36542;51.700;8.846;2023-03-24T06:41:15;11.40;99.90
50586;DHT22;36542;51.700;8.846;2023-03-24T06:43:41;11.40;99.90
50586;DHT22;36542;51.700;8.846;2023-03-24T06:46:06;11.40;99.90
50586;DHT22;36542;51.700;8.846;2023-03-24T06:48:32;11.40;99.90
50586;DHT22;36542;51.700;8.846;2023-03-24T06:50:58;11.50;99.90
50586;DHT22;36542;51.700;8.846;2023-03-24T06:53:23;11.50;99.90
50586;DHT22;36542;51.700;8.846;2023-03-24T06:55:49;11.60;99.90
50586;DHT22;36542;51.700;8.846;2023-03-24T06:58:16;11.60;99.90
50586;DHT22;36542;51.700;8.846;2023-03-24T07:00:42;11.70;99.90
50586;DHT22;36542;51.700;8.846;2023-03-24T07:03:08;11.70;99.90
50586;DHT22;36542;51.700;8.846;2023-03-24T07:05:38;11.60;99.90
50586;DHT22;36542;51.700;8.846;2023-03-24T07:08:04;11.60;99.90
50586;DHT22;36542;51.700;8.846;2023-03-24T07:10:30;11.60;99.90
50586;DHT22;36542;51.700;8.846;2023-03-24T07:12:55;11.60;99.90
50586;DHT22;36542;51.700;8.846;2023-03-24T07:15:22;11.70;99.90
50586;DHT22;36542;51.700;8.846;2023-03-24T07:17:48;11.90;99.90
50586;DHT22;36542;51.700;8.846;2023-03-24T07:20:14;12.50;99.90
50586;DHT22;36542;51.700;8.846;2023-03-24T07:22:40;12.90;99.90
50586;DHT22;36542;51.700;8.846;2023-03-24T07:25:06;12.70;99.90
50586;DHT22;36542;51.700;8.846;2023-03-24T07:27:32;12.40;99.90
50586;DHT22;36542;51.700;8.846;2023-03-24T07:29:59;12.30;99.90
50586;DHT22;36542;51.700;8.846;2023-03-24T07:32:25;12.10;99.90
50586;DHT22;36542;51.700;8.846;2023-03-24T07:34:50;11.90;99.90
50586;DHT22;36542;51.700;8.846;2023-03-24T07:37:17;11.70;99.90
50586;DHT22;36542;51.700;8.846;2023-03-24T07:39:42;11.50;99.90
50586;DHT22;36542;51.700;8.846;2023-03-24T07:42:08;11.50;99.90
50586;DHT22;36542;51.700;8.846;2023-03-24T07:44:33;11.50;99.90
50586;DHT22;36542;51.700;8.846;2023-03-24T07:46:58;11.40;99.90
50586;DHT22;36542;51.700;8.846;2023-03-24T07:49:24;11.30;99.90
50586;DHT22;36542;51.700;8.846;2023-03-24T07:51:50;11.40;99.90
50586;DHT22;36542;51.700;8.846;2023-03-24T07:54:15;11.30;99.90
50586;DHT22;36542;51.700;8.846;2023-03-24T07:56:41;11.30;99.90
50586;DHT22;36542;51.700;8.846;2023-03-24T07:59:07;11.30;99.90
50586;DHT22;36542;51.700;8.846;2023-03-24T08:01:34;11.30;99.90
50586;DHT22;36542;51.700;8.846;2023-03-24T08:04:01;11.20;99.90
50586;DHT22;36542;51.700;8.846;2023-03-24T08:06:27;11.20;99.90
50586;DHT22;36542;51.700;8.846;2023-03-24T08:08:53;11.40;99.90
50586;DHT22;36542;51.700;8.846;2023-03-24T08:11:19;11.60;99.90
50586;DHT22;36542;51.700;8.846;2023-03-24T08:13:45;11.70;99.90
50586;DHT22;36542;51.700;8.846;2023-03-24T08:16:10;11.70;99.90
50586;DHT22;36542;51.700;8.846;2023-03-24T08:18:36;12.20;99.90
50586;DHT22;36542;51.700;8.846;2023-03-24T08:21:01;12.50;99.90
50586;DHT22;36542;51.700;8.846;2023-03-24T08:23:27;12.70;99.90
50586;DHT22;36542;51.700;8.846;2023-03-24T08:25:53;12.70;99.90
50586;DHT22;36542;51.700;8.846;2023-03-24T08:28:19;12.50;99.90
50586;DHT22;36542;51.700;8.846;2023-03-24T08:30:45;12.20;99.90
50586;DHT22;36542;51.700;8.846;2023-03-24T08:33:15;12.00;99.90
50586;DHT22;36542;51.700;8.846;2023-03-24T08:35:41;11.90;99.90
50586;DHT22;36542;51.700;8.846;2023-03-24T08:38:08;11.70;99.90
50586;DHT22;36542;51.700;8.846;2023-03-24T08:40:34;12.00;99.90
50586;DHT22;36542;51.700;8.846;2023-03-24T08:43:03;12.20;99.90
50586;DHT22;36542;51.700;8.846;2023-03-24T08:45:30;12.20;99.90
50586;DHT22;36542;51.700;8.846;2023-03-24T08:47:58;12.20;99.90
50586;DHT22;36542;51.700;8.846;2023-03-24T08:50:27;12.30;99.90
50586;DHT22;36542;51.700;8.846;2023-03-24T08:52:54;12.60;99.90
50586;DHT22;36542;51.700;8.846;2023-03-24T08:55:20;12.60;99.90
50586;DHT22;36542;51.700;8.846;2023-03-24T08:57:47;12.40;99.90
50586;DHT22;36542;51.700;8.846;2023-03-24T09:00:13;12.40;99.90
50586;DHT22;36542;51.700;8.846;2023-03-24T09:02:41;12.50;99.90
50586;DHT22;36542;51.700;8.846;2023-03-24T09:05:07;12.80;99.90
50586;DHT22;36542;51.700;8.846;2023-03-24T09:07:33;12.80;99.90
50586;DHT22;36542;51.700;8.846;2023-03-24T09:09:58;12.50;99.90
50586;DHT22;36542;51.700;8.846;2023-03-24T09:12:24;12.30;99.90
50586;DHT22;36542;51.700;8.846;2023-03-24T09:14:50;12.30;99.90
50586;DHT22;36542;51.700;8.846;2023-03-24T09:17:16;12.10;99.90
50586;DHT22;36542;51.700;8.846;2023-03-24T09:19:42;12.20;99.90
50586;DHT22;36542;51.700;8.846;2023-03-24T09:22:09;12.10;99.90
50586;DHT22;36542;51.700;8.846;2023-03-24T09:24:35;12.20;99.90
50586;DHT22;36542;51.700;8.846;2023-03-24T09:27:01;12.30;99.90
50586;DHT22;36542;51.700;8.846;2023-03-24T09:29:26;12.80;99.90
50586;DHT22;36542;51.700;8.846;2023-03-24T09:31:52;13.80;99.90
50586;DHT22;36542;51.700;8.846;2023-03-24T09:34:18;14.70;99.90
50586;DHT22;36542;51.700;8.846;2023-03-24T09:36:45;15.60;99.90
50586;DHT22;36542;51.700;8.846;2023-03-24T09:39:10;15.50;99.90
50586;DHT22;36542;51.700;8.846;2023-03-24T09:41:36;16.30;99.90
50586;DHT22;36542;51.700;8.846;2023-03-24T09:44:24;16.50;99.90
50586;DHT22;36542;51.700;8.846;2023-03-24T09:49:56;16.10;99.90
50586;DHT22;36542;51.700;8.846;2023-03-24T09:52:35;14.90;99.90
50586;DHT22;36542;51.700;8.846;2023-03-24T09:55:04;14.00;99.90
50586;DHT22;36542;51.700;8.846;2023-03-24T09:57:36;13.80;99.90
50586;DHT22;36542;51.700;8.846;2023-03-24T10:00:26;13.60;99.90
50586;DHT22;36542;51.700;8.846;2023-03-24T10:02:57;13.80;99.90
50586;DHT22;36542;51.700;8.846;2023-03-24T10:05:43;14.10;99.90
50586;DHT22;36542;51.700;8.846;2023-03-24T10:08:20;14.30;99.90
50586;DHT22;36542;51.700;8.846;2023-03-24T10:11:06;15.10;99.90
50586;DHT22;36542;51.700;8.846;2023-03-24T10:13:49;15.50;99.90
50586;DHT22;36542;51.700;8.846;2023-03-24T10:16:44;14.90;99.90
50586;DHT22;36542;51.700;8.846;2023-03-24T10:22:32;13.80;99.90
50586;DHT22;36542;51.700;8.846;2023-03-24T10:25:17;13.80;99.90
50586;DHT22;36542;51.700;8.846;2023-03-24T10:27:48;14.30;99.90
50586;DHT22;36542;51.700;8.846;2023-03-24T10:30:21;13.90;99.90
50586;DHT22;36542;51.700;8.846;2023-03-24T10:32:47;13.60;99.90
50586;DHT22;36542;51.700;8.846;2023-03-24T10:35:28;14.20;99.90
50586;DHT22;36542;51.700;8.846;2023-03-24T10:37:58;14.90;99.90
50586;DHT22;36542;51.700;8.846;2023-03-24T10:40:29;15.40;99.90
50586;DHT22;36542;51.700;8.846;2023-03-24T10:42:57;15.50;99.90
50586;DHT22;36542;51.700;8.846;2023-03-24T10:45:32;15.80;99.90
50586;DHT22;36542;51.700;8.846;2023-03-24T10:48:00;15.60;99.90
50586;DHT22;36542;51.700;8.846;2023-03-24T10:50:28;15.50;99.90
50586;DHT22;36542;51.700;8.846;2023-03-24T10:52:54;15.00;99.90
50586;DHT22;36542;51.700;8.846;2023-03-24T10:55:22;14.90;99.90
50586;DHT22;36542;51.700;8.846;2023-03-24T10:57:57;15.00;99.90
50586;DHT22;36542;51.700;8.846;2023-03-24T11:00:28;15.00;99.90
50586;DHT22;36542;51.700;8.846;2023-03-24T11:02:57;14.80;99.90
50586;DHT22;36542;51.700;8.846;2023-03-24T11:05:31;14.40;99.90
50586;DHT22;36542;51.700;8.846;2023-03-24T11:08:22;13.80;99.90
50586;DHT22;36542;51.700;8.846;2023-03-24T11:10:50;13.90;99.90
50586;DHT22;36542;51.700;8.846;2023-03-24T11:13:27;14.40;99.90
50586;DHT22;36542;51.700;8.846;2023-03-24T11:16:15;14.70;99.90
50586;DHT22;36542;51.700;8.846;2023-03-24T11:19:01;14.60;99.90
50586;DHT22;36542;51.700;8.846;2023-03-24T11:21:28;14.60;99.90
50586;DHT22;36542;51.700;8.846;2023-03-24T11:24:00;14.40;99.90
50586;DHT22;36542;51.700;8.846;2023-03-24T11:26:30;14.60;99.90
50586;DHT22;36542;51.700;8.846;2023-03-24T11:29:00;14.70;99.90
50586;DHT22;36542;51.700;8.846;2023-03-24T11:31:32;14.60;99.90
50586;DHT22;36542;51.700;8.846;2023-03-24T11:34:09;14.50;99.90
50586;DHT22;36542;51.700;8.846;2023-03-24T11:36:46;14.40;99.90
50586;DHT22;36542;51.700;8.846;2023-03-24T11:39:33;14.50;99.90
50586;DHT22;36542;51.700;8.846;2023-03-24T11:42:11;14.80;99.90
50586;DHT22;36542;51.700;8.846;2023-03-24T11:52:53;14.70;99.90
50586;DHT22;36542;51.700;8.846;2023-03-24T11:58:35;14.60;99.90
50586;DHT22;36542;51.700;8.846;2023-03-24T12:09:19;14.10;99.90
50586;DHT22;36542;51.700;8.846;2023-03-24T12:17:32;14.80;99.90
50586;DHT22;36542;51.700;8.846;2023-03-24T12:20:33;14.70;99.90
50586;DHT22;36542;51.700;8.846;2023-03-24T12:23:32;14.90;99.90
50586;DHT22;36542;51.700;8.846;2023-03-24T12:31:52;14.90;99.90
50586;DHT22;36542;51.700;8.846;2023-03-24T12:34:38;14.60;99.90
50586;DHT22;36542;51.700;8.846;2023-03-24T12:37:22;14.60;99.90
50586;DHT22;36542;51.700;8.846;2023-03-24T12:42:43;14.80;99.90
50586;DHT22;36542;51.700;8.846;2023-03-24T12:45:17;14.60;99.90
50586;DHT22;36542;51.700;8.846;2023-03-24T12:48:04;14.80;99.90
50586;DHT22;36542;51.700;8.846;2023-03-24T12:50:52;14.20;99.90
50586;DHT22;36542;51.700;8.846;2023-03-24T12:53:39;13.80;99.90
50586;DHT22;36542;51.700;8.846;2023-03-24T12:56:20;14.20;99.90
50586;DHT22;36542;51.700;8.846;2023-03-24T13:01:25;14.10;99.90
50586;DHT22;36542;51.700;8.846;2023-03-24T13:09:33;14.00;99.90
50586;DHT22;36542;51.700;8.846;2023-03-24T13:12:09;13.90;99.90
50586;DHT22;36542;51.700;8.846;2023-03-24T13:14:52;14.20;99.90
50586;DHT22;36542;51.700;8.846;2023-03-24T13:17:47;14.50;99.90
50586;DHT22;36542;51.700;8.846;2023-03-24T13:20:22;14.50;99.90
50586;DHT22;36542;51.700;8.846;2023-03-24T13:22:49;14.20;99.90
50586;DHT22;36542;51.700;8.846;2023-03-24T13:25:48;14.10;99.90
50586;DHT22;36542;51.700;8.846;2023-03-24T13:28:28;14.40;99.90
50586;DHT22;36542;51.700;8.846;2023-03-24T13:30:55;14.50;99.90
50586;DHT22;36542;51.700;8.846;2023-03-24T13:33:27;15.00;99.90
50586;DHT22;36542;51.700;8.846;2023-03-24T13:36:23;15.00;99.90
50586;DHT22;36542;51.700;8.846;2023-03-24T13:38:54;14.80;99.90
50586;DHT22;36542;51.700;8.846;2023-03-24T13:41:23;15.00;99.90
50586;DHT22;36542;51.700;8.846;2023-03-24T13:44:05;15.20;99.90
50586;DHT22;36542;51.700;8.846;2023-03-24T13:46:35;15.00;99.90
50586;DHT22;36542;51.700;8.846;2023-03-24T13:49:04;14.90;99.90
50586;DHT22;36542;51.700;8.846;2023-03-24T13:51:35;15.10;99.90
50586;DHT22;36542;51.700;8.846;2023-03-24T13:56:52;15.10;99.90
50586;DHT22;36542;51.700;8.846;2023-03-24T13:59:30;15.30;99.90
50586;DHT22;36542;51.700;8.846;2023-03-24T14:02:22;15.10;99.90
50586;DHT22;36542;51.700;8.846;2023-03-24T14:05:07;15.10;99.90
50586;DHT22;36542;51.700;8.846;2023-03-24T14:10:37;15.30;99.90
50586;DHT22;36542;51.700;8.846;2023-03-24T14:15:54;15.40;99.90
50586;DHT22;36542;51.700;8.846;2023-03-24T14:23:33;15.20;99.90
50586;DHT22;36542;51.700;8.846;2023-03-24T14:25:59;15.00;99.90
50586;DHT22;36542;51.700;8.846;2023-03-24T14:41:51;14.10;99.90
50586;DHT22;36542;51.700;8.846;2023-03-24T14:47:17;14.10;99.90
50586;DHT22;36542;51.700;8.846;2023-03-24T14:49:45;13.90;99.90
50586;DHT22;36542;51.700;8.846;2023-03-24T14:52:34;13.80;99.90
50586;DHT22;36542;51.700;8.846;2023-03-24T14:55:05;13.60;99.90
50586;DHT22;36542;51.700;8.846;2023-03-24T14:57:38;13.40;99.90
50586;DHT22;36542;51.700;8.846;2023-03-24T15:00:51;13.10;99.90
50586;DHT22;36542;51.700;8.846;2023-03-24T15:03:02;13.20;99.90
50586;DHT22;36542;51.700;8.846;2023-03-24T15:05:35;13.30;99.90
50586;DHT22;36542;51.700;8.846;2023-03-24T15:08:14;13.30;99.90
50586;DHT22;36542;51.700;8.846;2023-03-24T15:13:24;13.30;99.90
50586;DHT22;36542;51.700;8.846;2023-03-24T15:15:52;13.10;99.90
50586;DHT22;36542;51.700;8.846;2023-03-24T15:18:18;13.00;99.90
50586;DHT22;36542;51.700;8.846;2023-03-24T15:20:46;13.00;99.90
50586;DHT22;36542;51.700;8.846;2023-03-24T15:23:25;13.10;99.90
50586;DHT22;36542;51.700;8.846;2023-03-24T15:25:53;13.20;99.90
50586;DHT22;36542;51.700;8.846;2023-03-24T15:28:19;13.20;99.90
50586;DHT22;36542;51.700;8.846;2023-03-24T15:30:49;13.30;99.90
50586;DHT22;36542;51.700;8.846;2023-03-24T15:33:15;13.00;99.90
50586;DHT22;36542;51.700;8.846;2023-03-24T15:35:41;13.10;99.90
50586;DHT22;36542;51.700;8.846;2023-03-24T15:38:24;13.20;99.90
50586;DHT22;36542;51.700;8.846;2023-03-24T15:41:00;13.30;99.90
50586;DHT22;36542;51.700;8.846;2023-03-24T15:43:26;13.10;99.90
50586;DHT22;36542;51.700;8.846;2023-03-24T15:45:54;13.10;99.90
50586;DHT22;36542;51.700;8.846;2023-03-24T15:48:23;13.10;99.90
50586;DHT22;36542;51.700;8.846;2023-03-24T15:51:00;13.10;99.90
50586;DHT22;36542;51.700;8.846;2023-03-24T15:53:38;13.00;99.90
50586;DHT22;36542;51.700;8.846;2023-03-24T15:56:19;12.90;99.90
50586;DHT22;36542;51.700;8.846;2023-03-24T15:58:52;12.80;99.90
50586;DHT22;36542;51.700;8.846;2023-03-24T16:01:23;12.70;99.90
50586;DHT22;36542;51.700;8.846;2023-03-24T16:03:52;12.20;99.90
50586;DHT22;36542;51.700;8.846;2023-03-24T16:06:27;11.40;99.90
50586;DHT22;36542;51.700;8.846;2023-03-24T16:08:57;11.10;99.90
50586;DHT22;36542;51.700;8.846;2023-03-24T16:11:27;11.00;99.90
50586;DHT22;36542;51.700;8.846;2023-03-24T16:13:52;10.70;99.90
50586;DHT22;36542;51.700;8.846;2023-03-24T16:16:28;10.40;99.90
50586;DHT22;36542;51.700;8.846;2023-03-24T16:18:54;10.30;99.90
50586;DHT22;36542;51.700;8.846;2023-03-24T16:21:26;10.30;99.90
50586;DHT22;36542;51.700;8.846;2023-03-24T16:23:53;10.40;99.90
50586;DHT22;36542;51.700;8.846;2023-03-24T16:26:28;10.30;99.90
50586;DHT22;36542;51.700;8.846;2023-03-24T16:28:56;10.30;99.90
50586;DHT22;36542;51.700;8.846;2023-03-24T16:31:27;10.20;99.90
50586;DHT22;36542;51.700;8.846;2023-03-24T16:33:55;10.10;99.90
50586;DHT22;36542;51.700;8.846;2023-03-24T16:36:21;10.00;99.90
50586;DHT22;36542;51.700;8.846;2023-03-24T16:38:48;9.90;99.90
50586;DHT22;36542;51.700;8.846;2023-03-24T16:41:14;9.90;99.90
50586;DHT22;36542;51.700;8.846;2023-03-24T16:43:44;10.00;99.90
50586;DHT22;36542;51.700;8.846;2023-03-24T16:46:36;10.00;99.90
50586;DHT22;36542;51.700;8.846;2023-03-24T16:49:04;10.10;99.90
50586;DHT22;36542;51.700;8.846;2023-03-24T16:51:31;10.20;99.90
50586;DHT22;36542;51.700;8.846;2023-03-24T16:53:57;10.20;99.90
50586;DHT22;36542;51.700;8.846;2023-03-24T16:56:23;10.20;99.90
50586;DHT22;36542;51.700;8.846;2023-03-24T16:58:49;10.20;99.90
50586;DHT22;36542;51.700;8.846;2023-03-24T17:01:30;10.10;99.90
50586;DHT22;36542;51.700;8.846;2023-03-24T17:04:11;10.00;99.90
50586;DHT22;36542;51.700;8.846;2023-03-24T17:06:39;9.90;99.90
50586;DHT22;36542;51.700;8.846;2023-03-24T17:09:06;9.80;99.90
50586;DHT22;36542;51.700;8.846;2023-03-24T17:11:44;9.70;99.90
50586;DHT22;36542;51.700;8.846;2023-03-24T17:14:10;9.60;99.90
50586;DHT22;36542;51.700;8.846;2023-03-24T17:16:41;9.50;99.90
50586;DHT22;36542;51.700;8.846;2023-03-24T17:19:15;9.50;99.90
50586;DHT22;36542;51.700;8.846;2023-03-24T17:24:24;9.40;99.90
50586;DHT22;36542;51.700;8.846;2023-03-24T17:26:50;9.40;99.90
50586;DHT22;36542;51.700;8.846;2023-03-24T17:29:15;9.40;99.90
50586;DHT22;36542;51.700;8.846;2023-03-24T17:31:41;9.30;99.90
50586;DHT22;36542;51.700;8.846;2023-03-24T17:34:13;9.30;99.90
50586;DHT22;36542;51.700;8.846;2023-03-24T17:36:39;9.20;99.90
50586;DHT22;36542;51.700;8.846;2023-03-24T17:39:05;9.20;99.90
50586;DHT22;36542;51.700;8.846;2023-03-24T17:41:34;9.10;99.90
50586;DHT22;36542;51.700;8.846;2023-03-24T17:44:00;9.00;99.90
50586;DHT22;36542;51.700;8.846;2023-03-24T17:46:25;9.00;99.90
50586;DHT22;36542;51.700;8.846;2023-03-24T17:48:51;8.90;99.90
50586;DHT22;36542;51.700;8.846;2023-03-24T17:51:16;8.90;99.90
50586;DHT22;36542;51.700;8.846;2023-03-24T17:53:42;8.90;99.90
50586;DHT22;36542;51.700;8.846;2023-03-24T17:56:09;8.90;99.90
50586;DHT22;36542;51.700;8.846;2023-03-24T17:58:35;8.90;99.90
50586;DHT22;36542;51.700;8.846;2023-03-24T18:01:02;8.90;99.90